sensor_id;sensor_type;location;lat;lon;timestamp;P1;durP1;ratioP1;P2;durP2;ratioP2
70388;SDS011;58659;49.050;8.530;2023-02-15T00:00:22;12.10;;;5.10;;
70388;SDS011;58659;49.050;8.530;2023-02-15T00:02:48;17.33;;;6.67;;
70388;SDS011;58659;49.050;8.530;2023-02-15T00:05:13;14.23;;;6.17;;
70388;SDS011;58659;49.050;8.530;2023-02-15T00:07:38;14.83;;;5.67;;
70388;SDS011;58659;49.050;8.530;2023-02-15T00:10:04;16.73;;;5.80;;
70388;SDS011;58659;49.050;8.530;2023-02-15T00:12:30;14.50;;;5.30;;
70388;SDS011;58659;49.050;8.530;2023-02-15T00:14:56;11.27;;;6.43;;
70388;SDS011;58659;49.050;8.530;2023-02-15T00:17:21;11.93;;;4.53;;
70388;SDS011;58659;49.050;8.530;2023-02-15T00:19:46;16.83;;;6.37;;
70388;SDS011;58659;49.050;8.530;2023-02-15T00:22:12;17.07;;;5.57;;
70388;SDS011;58659;49.050;8.530;2023-02-15T00:24:37;17.97;;;6.90;;
70388;SDS011;58659;49.050;8.530;2023-02-15T00:27:03;15.67;;;6.07;;
70388;SDS011;58659;49.050;8.530;2023-02-15T00:29:28;12.40;;;5.37;;
70388;SDS011;58659;49.050;8.530;2023-02-15T00:31:53;17.53;;;6.23;;
70388;SDS011;58659;49.050;8.530;2023-02-15T00:34:20;17.43;;;6.50;;
70388;SDS011;58659;49.050;8.530;2023-02-15T00:36:47;18.20;;;5.80;;
70388;SDS011;58659;49.050;8.530;2023-02-15T00:39:13;21.00;;;5.93;;
70388;SDS011;58659;49.050;8.530;2023-02-15T00:41:39;11.23;;;4.10;;
70388;SDS011;58659;49.050;8.530;2023-02-15T00:44:04;16.57;;;4.93;;
70388;SDS011;58659;49.050;8.530;2023-02-15T00:46:31;15.10;;;5.13;;
70388;SDS011;58659;49.050;8.530;2023-02-15T00:48:56;19.00;;;5.50;;
70388;SDS011;58659;49.050;8.530;2023-02-15T00:51:22;19.57;;;5.33;;
70388;SDS011;58659;49.050;8.530;2023-02-15T00:53:48;17.20;;;5.20;;
70388;SDS011;58659;49.050;8.530;2023-02-15T00:56:14;12.67;;;4.33;;
70388;SDS011;58659;49.050;8.530;2023-02-15T00:58:39;12.60;;;5.67;;
70388;SDS011;58659;49.050;8.530;2023-02-15T01:01:05;11.77;;;4.30;;
70388;SDS011;58659;49.050;8.530;2023-02-15T01:03:41;6.40;;;3.03;;
70388;SDS011;58659;49.050;8.530;2023-02-15T01:06:07;14.97;;;5.13;;
70388;SDS011;58659;49.050;8.530;2023-02-15T01:08:33;13.20;;;5.23;;
70388;SDS011;58659;49.050;8.530;2023-02-15T01:11:03;9.30;;;3.93;;
70388;SDS011;58659;49.050;8.530;2023-02-15T01:13:30;16.37;;;6.07;;
70388;SDS011;58659;49.050;8.530;2023-02-15T01:15:55;20.00;;;6.93;;
70388;SDS011;58659;49.050;8.530;2023-02-15T01:18:21;13.83;;;5.27;;
70388;SDS011;58659;49.050;8.530;2023-02-15T01:20:47;15.00;;;5.77;;
70388;SDS011;58659;49.050;8.530;2023-02-15T01:23:12;16.53;;;5.37;;
70388;SDS011;58659;49.050;8.530;2023-02-15T01:25:38;8.07;;;3.17;;
70388;SDS011;58659;49.050;8.530;2023-02-15T01:28:03;9.53;;;3.33;;
70388;SDS011;58659;49.050;8.530;2023-02-15T01:30:49;16.67;;;4.93;;
70388;SDS011;58659;49.050;8.530;2023-02-15T01:33:14;10.57;;;3.23;;
70388;SDS011;58659;49.050;8.530;2023-02-15T01:35:42;12.30;;;5.10;;
70388;SDS011;58659;49.050;8.530;2023-02-15T01:38:09;15.47;;;4.60;;
70388;SDS011;58659;49.050;8.530;2023-02-15T01:40:34;9.17;;;3.70;;
70388;SDS011;58659;49.050;8.530;2023-02-15T01:42:59;9.90;;;3.93;;
70388;SDS011;58659;49.050;8.530;2023-02-15T01:45:28;9.53;;;4.33;;
70388;SDS011;58659;49.050;8.530;2023-02-15T01:48:06;15.93;;;5.67;;
70388;SDS011;58659;49.050;8.530;2023-02-15T01:50:47;10.93;;;5.00;;
70388;SDS011;58659;49.050;8.530;2023-02-15T01:53:27;10.63;;;3.87;;
70388;SDS011;58659;49.050;8.530;2023-02-15T01:55:58;13.90;;;5.37;;
70388;SDS011;58659;49.050;8.530;2023-02-15T01:58:27;9.00;;;4.23;;
70388;SDS011;58659;49.050;8.530;2023-02-15T02:00:54;15.77;;;4.30;;
70388;SDS011;58659;49.050;8.530;2023-02-15T02:03:27;10.90;;;4.33;;
70388;SDS011;58659;49.050;8.530;2023-02-15T02:06:01;9.97;;;4.40;;
70388;SDS011;58659;49.050;8.530;2023-02-15T02:08:27;11.23;;;5.10;;
70388;SDS011;58659;49.050;8.530;2023-02-15T02:10:53;15.10;;;4.80;;
70388;SDS011;58659;49.050;8.530;2023-02-15T02:13:18;9.57;;;4.83;;
70388;SDS011;58659;49.050;8.530;2023-02-15T02:18:25;13.60;;;5.80;;
70388;SDS011;58659;49.050;8.530;2023-02-15T02:24:59;22.93;;;6.50;;
70388;SDS011;58659;49.050;8.530;2023-02-15T02:42:06;14.77;;;3.50;;
70388;SDS011;58659;49.050;8.530;2023-02-15T02:44:44;8.67;;;3.27;;
70388;SDS011;58659;49.050;8.530;2023-02-15T02:49:51;9.47;;;3.50;;
70388;SDS011;58659;49.050;8.530;2023-02-15T02:52:34;9.90;;;4.20;;
70388;SDS011;58659;49.050;8.530;2023-02-15T02:55:12;10.87;;;3.33;;
70388;SDS011;58659;49.050;8.530;2023-02-15T02:57:40;7.20;;;3.43;;
70388;SDS011;58659;49.050;8.530;2023-02-15T03:00:11;14.63;;;3.90;;
70388;SDS011;58659;49.050;8.530;2023-02-15T03:02:39;9.53;;;3.93;;
70388;SDS011;58659;49.050;8.530;2023-02-15T03:05:11;20.50;;;6.07;;
70388;SDS011;58659;49.050;8.530;2023-02-15T03:07:41;8.77;;;3.47;;
70388;SDS011;58659;49.050;8.530;2023-02-15T03:10:09;6.80;;;3.63;;
70388;SDS011;58659;49.050;8.530;2023-02-15T03:12:35;12.20;;;3.47;;
70388;SDS011;58659;49.050;8.530;2023-02-15T03:15:15;10.13;;;4.83;;
70388;SDS011;58659;49.050;8.530;2023-02-15T03:17:45;5.83;;;3.03;;
70388;SDS011;58659;49.050;8.530;2023-02-15T03:20:35;7.07;;;3.23;;
70388;SDS011;58659;49.050;8.530;2023-02-15T03:23:02;12.97;;;3.67;;
70388;SDS011;58659;49.050;8.530;2023-02-15T03:25:33;8.80;;;3.27;;
70388;SDS011;58659;49.050;8.530;2023-02-15T03:28:06;6.53;;;3.10;;
70388;SDS011;58659;49.050;8.530;2023-02-15T03:30:35;10.47;;;3.67;;
70388;SDS011;58659;49.050;8.530;2023-02-15T03:33:02;11.87;;;4.27;;
70388;SDS011;58659;49.050;8.530;2023-02-15T03:35:36;9.00;;;3.47;;
70388;SDS011;58659;49.050;8.530;2023-02-15T03:38:08;10.47;;;3.50;;
70388;SDS011;58659;49.050;8.530;2023-02-15T03:40:40;9.57;;;3.03;;
70388;SDS011;58659;49.050;8.530;2023-02-15T03:43:33;7.73;;;3.43;;
70388;SDS011;58659;49.050;8.530;2023-02-15T03:46:08;10.20;;;3.40;;
70388;SDS011;58659;49.050;8.530;2023-02-15T03:48:41;9.47;;;4.27;;
70388;SDS011;58659;49.050;8.530;2023-02-15T03:51:12;8.00;;;3.47;;
70388;SDS011;58659;49.050;8.530;2023-02-15T03:54:04;5.50;;;3.10;;
70388;SDS011;58659;49.050;8.530;2023-02-15T03:56:33;6.17;;;2.73;;
70388;SDS011;58659;49.050;8.530;2023-02-15T03:59:00;11.40;;;3.07;;
70388;SDS011;58659;49.050;8.530;2023-02-15T04:01:47;7.60;;;2.57;;
70388;SDS011;58659;49.050;8.530;2023-02-15T04:04:45;6.70;;;3.20;;
70388;SDS011;58659;49.050;8.530;2023-02-15T04:07:10;7.40;;;3.17;;
70388;SDS011;58659;49.050;8.530;2023-02-15T04:09:36;6.07;;;3.80;;
70388;SDS011;58659;49.050;8.530;2023-02-15T04:12:20;7.87;;;3.83;;
70388;SDS011;58659;49.050;8.530;2023-02-15T04:14:46;11.73;;;4.57;;
70388;SDS011;58659;49.050;8.530;2023-02-15T04:17:30;7.63;;;3.17;;
70388;SDS011;58659;49.050;8.530;2023-02-15T04:19:56;10.27;;;3.43;;
70388;SDS011;58659;49.050;8.530;2023-02-15T04:22:40;9.13;;;2.97;;
70388;SDS011;58659;49.050;8.530;2023-02-15T04:25:24;6.47;;;3.27;;
70388;SDS011;58659;49.050;8.530;2023-02-15T04:27:53;5.50;;;2.90;;
70388;SDS011;58659;49.050;8.530;2023-02-15T04:30:20;9.40;;;3.93;;
70388;SDS011;58659;49.050;8.530;2023-02-15T04:32:47;8.97;;;3.27;;
70388;SDS011;58659;49.050;8.530;2023-02-15T04:35:12;7.20;;;3.87;;
70388;SDS011;58659;49.050;8.530;2023-02-15T04:37:38;8.97;;;3.37;;
70388;SDS011;58659;49.050;8.530;2023-02-15T04:40:04;6.27;;;2.73;;
70388;SDS011;58659;49.050;8.530;2023-02-15T04:42:30;7.47;;;3.63;;
70388;SDS011;58659;49.050;8.530;2023-02-15T04:44:56;6.33;;;2.43;;
70388;SDS011;58659;49.050;8.530;2023-02-15T04:47:21;6.30;;;3.30;;
70388;SDS011;58659;49.050;8.530;2023-02-15T04:49:47;10.73;;;2.67;;
70388;SDS011;58659;49.050;8.530;2023-02-15T04:52:12;5.60;;;2.97;;
70388;SDS011;58659;49.050;8.530;2023-02-15T04:54:38;14.87;;;4.37;;
70388;SDS011;58659;49.050;8.530;2023-02-15T04:57:03;8.87;;;3.60;;
70388;SDS011;58659;49.050;8.530;2023-02-15T04:59:29;8.87;;;2.97;;
70388;SDS011;58659;49.050;8.530;2023-02-15T05:01:54;7.83;;;2.77;;
70388;SDS011;58659;49.050;8.530;2023-02-15T05:04:19;14.63;;;4.07;;
70388;SDS011;58659;49.050;8.530;2023-02-15T05:06:45;8.83;;;2.67;;
70388;SDS011;58659;49.050;8.530;2023-02-15T05:09:10;4.70;;;2.40;;
70388;SDS011;58659;49.050;8.530;2023-02-15T05:11:36;10.17;;;3.73;;
70388;SDS011;58659;49.050;8.530;2023-02-15T05:14:01;10.07;;;4.83;;
70388;SDS011;58659;49.050;8.530;2023-02-15T05:16:27;6.10;;;2.70;;
70388;SDS011;58659;49.050;8.530;2023-02-15T05:18:52;9.20;;;4.00;;
70388;SDS011;58659;49.050;8.530;2023-02-15T05:21:18;10.80;;;4.13;;
70388;SDS011;58659;49.050;8.530;2023-02-15T05:23:43;6.57;;;2.60;;
70388;SDS011;58659;49.050;8.530;2023-02-15T05:26:11;6.70;;;2.47;;
70388;SDS011;58659;49.050;8.530;2023-02-15T05:28:57;7.47;;;2.90;;
70388;SDS011;58659;49.050;8.530;2023-02-15T05:31:22;8.50;;;2.87;;
70388;SDS011;58659;49.050;8.530;2023-02-15T05:33:48;7.67;;;2.80;;
70388;SDS011;58659;49.050;8.530;2023-02-15T05:36:13;7.73;;;3.80;;
70388;SDS011;58659;49.050;8.530;2023-02-15T05:38:38;8.87;;;3.60;;
70388;SDS011;58659;49.050;8.530;2023-02-15T05:41:05;7.87;;;2.87;;
70388;SDS011;58659;49.050;8.530;2023-02-15T05:43:31;5.43;;;2.63;;
70388;SDS011;58659;49.050;8.530;2023-02-15T05:45:56;7.40;;;3.80;;
70388;SDS011;58659;49.050;8.530;2023-02-15T05:48:23;8.77;;;3.83;;
70388;SDS011;58659;49.050;8.530;2023-02-15T05:50:59;7.63;;;3.10;;
70388;SDS011;58659;49.050;8.530;2023-02-15T05:53:29;6.57;;;2.70;;
70388;SDS011;58659;49.050;8.530;2023-02-15T05:55:56;14.60;;;5.03;;
70388;SDS011;58659;49.050;8.530;2023-02-15T05:58:25;9.17;;;3.03;;
70388;SDS011;58659;49.050;8.530;2023-02-15T06:00:51;12.77;;;3.90;;
70388;SDS011;58659;49.050;8.530;2023-02-15T06:03:17;8.37;;;3.33;;
70388;SDS011;58659;49.050;8.530;2023-02-15T06:05:42;5.97;;;3.47;;
70388;SDS011;58659;49.050;8.530;2023-02-15T06:08:07;9.73;;;3.83;;
70388;SDS011;58659;49.050;8.530;2023-02-15T06:10:32;6.23;;;3.40;;
70388;SDS011;58659;49.050;8.530;2023-02-15T06:12:58;11.60;;;4.13;;
70388;SDS011;58659;49.050;8.530;2023-02-15T06:15:23;8.97;;;4.00;;
70388;SDS011;58659;49.050;8.530;2023-02-15T06:17:48;8.73;;;3.33;;
70388;SDS011;58659;49.050;8.530;2023-02-15T06:20:14;11.17;;;3.57;;
70388;SDS011;58659;49.050;8.530;2023-02-15T06:22:39;10.67;;;4.57;;
70388;SDS011;58659;49.050;8.530;2023-02-15T06:25:05;10.53;;;3.97;;
70388;SDS011;58659;49.050;8.530;2023-02-15T06:27:30;8.70;;;3.20;;
70388;SDS011;58659;49.050;8.530;2023-02-15T06:29:55;14.20;;;4.67;;
70388;SDS011;58659;49.050;8.530;2023-02-15T06:32:21;10.13;;;4.60;;
70388;SDS011;58659;49.050;8.530;2023-02-15T06:34:46;9.70;;;4.40;;
70388;SDS011;58659;49.050;8.530;2023-02-15T06:37:11;9.43;;;4.33;;
70388;SDS011;58659;49.050;8.530;2023-02-15T06:39:37;10.10;;;4.00;;
70388;SDS011;58659;49.050;8.530;2023-02-15T06:42:02;12.00;;;4.30;;
70388;SDS011;58659;49.050;8.530;2023-02-15T06:44:28;10.27;;;4.70;;
70388;SDS011;58659;49.050;8.530;2023-02-15T06:46:53;10.33;;;4.07;;
70388;SDS011;58659;49.050;8.530;2023-02-15T06:49:18;11.47;;;4.37;;
70388;SDS011;58659;49.050;8.530;2023-02-15T06:51:44;7.17;;;3.57;;
70388;SDS011;58659;49.050;8.530;2023-02-15T06:54:09;9.60;;;3.90;;
70388;SDS011;58659;49.050;8.530;2023-02-15T06:56:34;6.20;;;2.20;;
70388;SDS011;58659;49.050;8.530;2023-02-15T06:59:00;8.13;;;3.23;;
70388;SDS011;58659;49.050;8.530;2023-02-15T07:01:26;10.13;;;3.83;;
70388;SDS011;58659;49.050;8.530;2023-02-15T07:03:51;10.20;;;3.47;;
70388;SDS011;58659;49.050;8.530;2023-02-15T07:06:16;10.60;;;4.00;;
70388;SDS011;58659;49.050;8.530;2023-02-15T07:08:42;12.45;;;4.55;;
70388;SDS011;58659;49.050;8.530;2023-02-15T07:11:07;6.73;;;3.23;;
70388;SDS011;58659;49.050;8.530;2023-02-15T07:13:51;9.47;;;4.63;;
70388;SDS011;58659;49.050;8.530;2023-02-15T07:16:19;8.20;;;3.00;;
70388;SDS011;58659;49.050;8.530;2023-02-15T07:18:45;8.40;;;3.13;;
70388;SDS011;58659;49.050;8.530;2023-02-15T07:21:10;8.20;;;3.70;;
70388;SDS011;58659;49.050;8.530;2023-02-15T07:23:36;7.93;;;3.10;;
70388;SDS011;58659;49.050;8.530;2023-02-15T07:26:03;8.10;;;2.93;;
70388;SDS011;58659;49.050;8.530;2023-02-15T07:28:29;7.77;;;3.67;;
70388;SDS011;58659;49.050;8.530;2023-02-15T07:30:55;6.57;;;2.50;;
70388;SDS011;58659;49.050;8.530;2023-02-15T07:33:20;8.33;;;2.67;;
70388;SDS011;58659;49.050;8.530;2023-02-15T07:35:49;8.13;;;3.03;;
70388;SDS011;58659;49.050;8.530;2023-02-15T07:38:16;11.43;;;2.90;;
70388;SDS011;58659;49.050;8.530;2023-02-15T07:40:42;5.90;;;2.27;;
70388;SDS011;58659;49.050;8.530;2023-02-15T07:43:08;5.70;;;2.47;;
70388;SDS011;58659;49.050;8.530;2023-02-15T07:45:33;8.93;;;3.90;;
70388;SDS011;58659;49.050;8.530;2023-02-15T07:48:00;8.57;;;2.47;;
70388;SDS011;58659;49.050;8.530;2023-02-15T07:50:26;7.33;;;2.73;;
70388;SDS011;58659;49.050;8.530;2023-02-15T07:52:51;11.13;;;3.23;;
70388;SDS011;58659;49.050;8.530;2023-02-15T07:55:16;2.90;;;2.00;;
70388;SDS011;58659;49.050;8.530;2023-02-15T07:57:44;6.53;;;2.93;;
70388;SDS011;58659;49.050;8.530;2023-02-15T08:00:10;5.23;;;2.60;;
70388;SDS011;58659;49.050;8.530;2023-02-15T08:02:39;3.57;;;1.83;;
70388;SDS011;58659;49.050;8.530;2023-02-15T08:05:05;6.57;;;2.73;;
70388;SDS011;58659;49.050;8.530;2023-02-15T08:07:31;6.90;;;2.40;;
70388;SDS011;58659;49.050;8.530;2023-02-15T08:09:56;5.13;;;2.30;;
70388;SDS011;58659;49.050;8.530;2023-02-15T08:12:21;4.97;;;2.50;;
70388;SDS011;58659;49.050;8.530;2023-02-15T08:14:47;21.37;;;3.70;;
70388;SDS011;58659;49.050;8.530;2023-02-15T08:17:12;5.17;;;2.80;;
70388;SDS011;58659;49.050;8.530;2023-02-15T08:19:37;5.47;;;2.23;;
70388;SDS011;58659;49.050;8.530;2023-02-15T08:22:06;3.20;;;1.57;;
70388;SDS011;58659;49.050;8.530;2023-02-15T08:24:36;4.30;;;2.47;;
70388;SDS011;58659;49.050;8.530;2023-02-15T08:27:02;5.43;;;3.00;;
70388;SDS011;58659;49.050;8.530;2023-02-15T08:29:29;6.97;;;2.43;;
70388;SDS011;58659;49.050;8.530;2023-02-15T08:31:57;7.87;;;3.10;;
70388;SDS011;58659;49.050;8.530;2023-02-15T08:34:26;6.33;;;2.63;;
70388;SDS011;58659;49.050;8.530;2023-02-15T08:36:52;4.33;;;2.27;;
70388;SDS011;58659;49.050;8.530;2023-02-15T08:39:17;7.50;;;2.80;;
70388;SDS011;58659;49.050;8.530;2023-02-15T08:41:44;5.33;;;2.90;;
70388;SDS011;58659;49.050;8.530;2023-02-15T08:44:10;3.27;;;2.00;;
70388;SDS011;58659;49.050;8.530;2023-02-15T08:46:37;5.87;;;2.57;;
70388;SDS011;58659;49.050;8.530;2023-02-15T08:49:04;8.00;;;2.17;;
70388;SDS011;58659;49.050;8.530;2023-02-15T08:51:31;6.83;;;2.80;;
70388;SDS011;58659;49.050;8.530;2023-02-15T08:53:59;5.97;;;2.27;;
70388;SDS011;58659;49.050;8.530;2023-02-15T08:56:30;6.83;;;2.67;;
70388;SDS011;58659;49.050;8.530;2023-02-15T08:58:58;7.10;;;3.17;;
70388;SDS011;58659;49.050;8.530;2023-02-15T09:01:24;6.73;;;2.40;;
70388;SDS011;58659;49.050;8.530;2023-02-15T09:03:52;11.40;;;2.67;;
70388;SDS011;58659;49.050;8.530;2023-02-15T09:06:21;8.63;;;3.20;;
70388;SDS011;58659;49.050;8.530;2023-02-15T09:08:47;3.63;;;1.97;;
70388;SDS011;58659;49.050;8.530;2023-02-15T09:11:17;5.70;;;2.20;;
70388;SDS011;58659;49.050;8.530;2023-02-15T09:13:58;5.97;;;2.17;;
70388;SDS011;58659;49.050;8.530;2023-02-15T09:16:26;6.07;;;2.40;;
70388;SDS011;58659;49.050;8.530;2023-02-15T09:18:54;6.93;;;1.97;;
70388;SDS011;58659;49.050;8.530;2023-02-15T09:21:20;7.00;;;2.77;;
70388;SDS011;58659;49.050;8.530;2023-02-15T09:23:50;7.13;;;2.60;;
70388;SDS011;58659;49.050;8.530;2023-02-15T09:26:17;6.80;;;2.70;;
70388;SDS011;58659;49.050;8.530;2023-02-15T09:28:44;8.37;;;3.20;;
70388;SDS011;58659;49.050;8.530;2023-02-15T09:31:14;9.53;;;3.00;;
70388;SDS011;58659;49.050;8.530;2023-02-15T09:33:40;6.43;;;3.10;;
70388;SDS011;58659;49.050;8.530;2023-02-15T09:36:14;4.27;;;2.03;;
70388;SDS011;58659;49.050;8.530;2023-02-15T09:38:44;8.27;;;2.77;;
70388;SDS011;58659;49.050;8.530;2023-02-15T09:44:12;9.47;;;2.50;;
70388;SDS011;58659;49.050;8.530;2023-02-15T09:49:30;5.30;;;2.57;;
70388;SDS011;58659;49.050;8.530;2023-02-15T09:54:46;12.33;;;3.73;;
70388;SDS011;58659;49.050;8.530;2023-02-15T10:00:09;8.13;;;3.97;;
70388;SDS011;58659;49.050;8.530;2023-02-15T10:08:21;5.27;;;2.30;;
70388;SDS011;58659;49.050;8.530;2023-02-15T10:27:23;5.93;;;2.53;;
70388;SDS011;58659;49.050;8.530;2023-02-15T10:33:37;7.87;;;3.00;;
70388;SDS011;58659;49.050;8.530;2023-02-15T10:35:59;5.00;;;2.10;;
70388;SDS011;58659;49.050;8.530;2023-02-15T10:38:38;6.03;;;3.27;;
70388;SDS011;58659;49.050;8.530;2023-02-15T10:41:09;8.03;;;2.67;;
70388;SDS011;58659;49.050;8.530;2023-02-15T10:49:26;6.40;;;3.67;;
70388;SDS011;58659;49.050;8.530;2023-02-15T10:55:25;7.30;;;4.20;;
70388;SDS011;58659;49.050;8.530;2023-02-15T11:08:39;6.67;;;3.30;;
70388;SDS011;58659;49.050;8.530;2023-02-15T11:11:09;5.83;;;3.10;;
70388;SDS011;58659;49.050;8.530;2023-02-15T11:13:44;10.13;;;3.40;;
70388;SDS011;58659;49.050;8.530;2023-02-15T11:16:17;7.90;;;2.53;;
70388;SDS011;58659;49.050;8.530;2023-02-15T11:19:01;5.50;;;2.17;;
70388;SDS011;58659;49.050;8.530;2023-02-15T11:21:38;7.27;;;2.47;;
70388;SDS011;58659;49.050;8.530;2023-02-15T11:24:11;7.83;;;2.83;;
70388;SDS011;58659;49.050;8.530;2023-02-15T11:26:41;9.77;;;3.17;;
70388;SDS011;58659;49.050;8.530;2023-02-15T11:29:18;7.37;;;3.07;;
70388;SDS011;58659;49.050;8.530;2023-02-15T11:31:54;6.03;;;2.87;;
70388;SDS011;58659;49.050;8.530;2023-02-15T11:34:27;8.10;;;3.70;;
70388;SDS011;58659;49.050;8.530;2023-02-15T11:37:15;9.13;;;3.53;;
70388;SDS011;58659;49.050;8.530;2023-02-15T11:39:46;13.03;;;4.27;;
70388;SDS011;58659;49.050;8.530;2023-02-15T11:42:17;9.83;;;4.53;;
70388;SDS011;58659;49.050;8.530;2023-02-15T11:47:15;7.93;;;2.80;;
70388;SDS011;58659;49.050;8.530;2023-02-15T11:49:40;6.00;;;2.80;;
70388;SDS011;58659;49.050;8.530;2023-02-15T11:52:07;11.47;;;4.20;;
70388;SDS011;58659;49.050;8.530;2023-02-15T11:54:37;6.00;;;2.77;;
70388;SDS011;58659;49.050;8.530;2023-02-15T12:00:03;9.67;;;2.57;;
70388;SDS011;58659;49.050;8.530;2023-02-15T12:02:51;9.00;;;3.60;;
70388;SDS011;58659;49.050;8.530;2023-02-15T12:05:20;12.27;;;3.57;;
70388;SDS011;58659;49.050;8.530;2023-02-15T12:10:23;5.27;;;2.67;;
70388;SDS011;58659;49.050;8.530;2023-02-15T12:15:37;7.67;;;2.40;;
70388;SDS011;58659;49.050;8.530;2023-02-15T12:18:15;6.40;;;3.13;;
70388;SDS011;58659;49.050;8.530;2023-02-15T12:20:49;7.80;;;3.30;;
70388;SDS011;58659;49.050;8.530;2023-02-15T12:23:15;7.90;;;3.90;;
70388;SDS011;58659;49.050;8.530;2023-02-15T12:25:43;5.20;;;2.10;;
70388;SDS011;58659;49.050;8.530;2023-02-15T12:28:35;6.50;;;3.40;;
70388;SDS011;58659;49.050;8.530;2023-02-15T12:31:03;9.20;;;3.17;;
70388;SDS011;58659;49.050;8.530;2023-02-15T12:33:35;10.20;;;3.87;;
70388;SDS011;58659;49.050;8.530;2023-02-15T12:36:17;7.50;;;2.87;;
70388;SDS011;58659;49.050;8.530;2023-02-15T12:39:02;7.73;;;3.13;;
70388;SDS011;58659;49.050;8.530;2023-02-15T12:41:31;4.37;;;2.33;;
70388;SDS011;58659;49.050;8.530;2023-02-15T12:44:04;4.93;;;2.93;;
70388;SDS011;58659;49.050;8.530;2023-02-15T12:46:40;11.17;;;3.37;;
70388;SDS011;58659;49.050;8.530;2023-02-15T12:49:07;10.10;;;3.57;;
70388;SDS011;58659;49.050;8.530;2023-02-15T12:54:31;0.63;;;0.50;;
70388;SDS011;58659;49.050;8.530;2023-02-15T12:57:02;7.03;;;3.17;;
70388;SDS011;58659;49.050;8.530;2023-02-15T12:59:47;10.33;;;3.57;;
70388;SDS011;58659;49.050;8.530;2023-02-15T13:02:36;8.90;;;4.17;;
70388;SDS011;58659;49.050;8.530;2023-02-15T13:07:44;7.63;;;3.03;;
70388;SDS011;58659;49.050;8.530;2023-02-15T13:12:54;2.93;;;0.73;;
70388;SDS011;58659;49.050;8.530;2023-02-15T13:15:44;1.60;;;1.23;;
70388;SDS011;58659;49.050;8.530;2023-02-15T13:18:13;2.87;;;1.13;;
70388;SDS011;58659;49.050;8.530;2023-02-15T13:20:42;3.40;;;1.07;;
70388;SDS011;58659;49.050;8.530;2023-02-15T13:26:09;4.17;;;1.10;;
70388;SDS011;58659;49.050;8.530;2023-02-15T13:28:40;6.33;;;3.37;;
70388;SDS011;58659;49.050;8.530;2023-02-15T13:31:11;6.57;;;2.67;;
70388;SDS011;58659;49.050;8.530;2023-02-15T13:33:39;6.50;;;3.07;;
70388;SDS011;58659;49.050;8.530;2023-02-15T13:36:23;1.90;;;1.17;;
70388;SDS011;58659;49.050;8.530;2023-02-15T13:45:29;0.50;;;0.50;;
70388;SDS011;58659;49.050;8.530;2023-02-15T13:50:36;6.67;;;2.33;;
70388;SDS011;58659;49.050;8.530;2023-02-15T13:55:44;8.93;;;2.77;;
70388;SDS011;58659;49.050;8.530;2023-02-15T13:58:32;5.20;;;3.00;;
70388;SDS011;58659;49.050;8.530;2023-02-15T14:11:44;1.70;;;1.60;;
70388;SDS011;58659;49.050;8.530;2023-02-15T14:17:37;2.63;;;1.50;;
70388;SDS011;58659;49.050;8.530;2023-02-15T14:23:21;3.23;;;1.50;;
70388;SDS011;58659;49.050;8.530;2023-02-15T14:26:02;4.50;;;2.73;;
70388;SDS011;58659;49.050;8.530;2023-02-15T14:31:28;4.40;;;1.77;;
70388;SDS011;58659;49.050;8.530;2023-02-15T14:34:02;5.07;;;2.70;;
70388;SDS011;58659;49.050;8.530;2023-02-15T14:36:29;3.97;;;2.23;;
70388;SDS011;58659;49.050;8.530;2023-02-15T14:38:59;6.77;;;3.03;;
70388;SDS011;58659;49.050;8.530;2023-02-15T14:47:37;7.70;;;3.27;;
70388;SDS011;58659;49.050;8.530;2023-02-15T14:58:38;9.93;;;3.10;;
70388;SDS011;58659;49.050;8.530;2023-02-15T15:01:29;4.33;;;2.50;;
70388;SDS011;58659;49.050;8.530;2023-02-15T15:03:58;8.77;;;3.00;;
70388;SDS011;58659;49.050;8.530;2023-02-15T15:06:27;6.30;;;2.63;;
70388;SDS011;58659;49.050;8.530;2023-02-15T15:09:08;6.20;;;2.40;;
70388;SDS011;58659;49.050;8.530;2023-02-15T15:11:48;8.33;;;2.67;;
70388;SDS011;58659;49.050;8.530;2023-02-15T15:17:11;9.17;;;2.80;;
70388;SDS011;58659;49.050;8.530;2023-02-15T15:22:20;7.10;;;3.33;;
70388;SDS011;58659;49.050;8.530;2023-02-15T15:24:49;6.33;;;2.97;;
70388;SDS011;58659;49.050;8.530;2023-02-15T15:43:51;5.37;;;1.97;;
70388;SDS011;58659;49.050;8.530;2023-02-15T15:46:53;8.57;;;2.93;;
70388;SDS011;58659;49.050;8.530;2023-02-15T15:49:38;6.77;;;3.57;;
70388;SDS011;58659;49.050;8.530;2023-02-15T15:52:17;3.47;;;2.40;;
70388;SDS011;58659;49.050;8.530;2023-02-15T15:54:45;8.40;;;2.63;;
70388;SDS011;58659;49.050;8.530;2023-02-15T15:57:26;4.33;;;2.17;;
70388;SDS011;58659;49.050;8.530;2023-02-15T15:59:53;5.13;;;1.60;;
70388;SDS011;58659;49.050;8.530;2023-02-15T16:02:19;8.60;;;3.13;;
70388;SDS011;58659;49.050;8.530;2023-02-15T16:04:45;7.53;;;3.37;;
70388;SDS011;58659;49.050;8.530;2023-02-15T16:12:35;9.07;;;3.30;;
70388;SDS011;58659;49.050;8.530;2023-02-15T16:17:44;9.93;;;3.47;;
70388;SDS011;58659;49.050;8.530;2023-02-15T16:20:16;11.13;;;3.90;;
70388;SDS011;58659;49.050;8.530;2023-02-15T16:22:48;9.40;;;3.47;;
70388;SDS011;58659;49.050;8.530;2023-02-15T16:25:34;7.17;;;3.17;;
70388;SDS011;58659;49.050;8.530;2023-02-15T16:28:08;8.07;;;3.93;;
70388;SDS011;58659;49.050;8.530;2023-02-15T16:30:37;8.27;;;3.97;;
70388;SDS011;58659;49.050;8.530;2023-02-15T16:35:48;9.60;;;3.57;;
70388;SDS011;58659;49.050;8.530;2023-02-15T16:41:30;8.13;;;3.03;;
70388;SDS011;58659;49.050;8.530;2023-02-15T16:43:56;6.70;;;4.17;;
70388;SDS011;58659;49.050;8.530;2023-02-15T16:46:25;10.33;;;3.97;;
70388;SDS011;58659;49.050;8.530;2023-02-15T16:48:53;11.17;;;3.57;;
70388;SDS011;58659;49.050;8.530;2023-02-15T16:51:23;10.70;;;2.97;;
70388;SDS011;58659;49.050;8.530;2023-02-15T16:53:51;8.60;;;4.33;;
70388;SDS011;58659;49.050;8.530;2023-02-15T16:56:22;5.50;;;2.97;;
70388;SDS011;58659;49.050;8.530;2023-02-15T16:58:50;7.97;;;3.07;;
70388;SDS011;58659;49.050;8.530;2023-02-15T17:01:20;9.73;;;3.43;;
70388;SDS011;58659;49.050;8.530;2023-02-15T17:03:48;9.97;;;4.40;;
70388;SDS011;58659;49.050;8.530;2023-02-15T17:06:26;8.43;;;3.57;;
70388;SDS011;58659;49.050;8.530;2023-02-15T17:08:55;11.37;;;3.53;;
70388;SDS011;58659;49.050;8.530;2023-02-15T17:11:36;9.77;;;3.73;;
70388;SDS011;58659;49.050;8.530;2023-02-15T17:16:35;8.87;;;4.00;;
70388;SDS011;58659;49.050;8.530;2023-02-15T17:19:12;11.37;;;3.47;;
70388;SDS011;58659;49.050;8.530;2023-02-15T17:22:03;6.57;;;2.93;;
70388;SDS011;58659;49.050;8.530;2023-02-15T17:26:57;10.77;;;3.63;;
70388;SDS011;58659;49.050;8.530;2023-02-15T17:32:16;11.37;;;4.23;;
70388;SDS011;58659;49.050;8.530;2023-02-15T17:40:10;17.73;;;5.50;;
70388;SDS011;58659;49.050;8.530;2023-02-15T17:42:44;9.97;;;4.53;;
70388;SDS011;58659;49.050;8.530;2023-02-15T17:45:09;18.30;;;5.03;;
70388;SDS011;58659;49.050;8.530;2023-02-15T17:47:34;12.53;;;5.03;;
70388;SDS011;58659;49.050;8.530;2023-02-15T17:50:01;10.20;;;5.00;;
70388;SDS011;58659;49.050;8.530;2023-02-15T17:52:28;14.07;;;5.07;;
70388;SDS011;58659;49.050;8.530;2023-02-15T17:54:55;12.00;;;4.57;;
70388;SDS011;58659;49.050;8.530;2023-02-15T17:57:38;17.40;;;5.07;;
70388;SDS011;58659;49.050;8.530;2023-02-15T18:00:04;13.57;;;5.60;;
70388;SDS011;58659;49.050;8.530;2023-02-15T18:02:49;17.03;;;6.17;;
70388;SDS011;58659;49.050;8.530;2023-02-15T18:05:33;14.03;;;4.50;;
70388;SDS011;58659;49.050;8.530;2023-02-15T18:08:18;15.80;;;5.13;;
70388;SDS011;58659;49.050;8.530;2023-02-15T18:11:08;11.93;;;3.00;;
70388;SDS011;58659;49.050;8.530;2023-02-15T18:13:53;11.50;;;3.70;;
70388;SDS011;58659;49.050;8.530;2023-02-15T18:16:20;9.30;;;4.30;;
70388;SDS011;58659;49.050;8.530;2023-02-15T18:18:50;13.30;;;4.93;;